Time;durP1;ratioP1;P1;durP2;ratioP2;P2;SDS_P1;SDS_P2;PMS_P1;PMS_P2;Temp;Humidity;BMP_temperature;BMP_pressure;BME280_temperature;BME280_humidity;BME280_pressure;Samples;Min_cycle;Max_cycle;Signal;HPM_P1;HPM_P2
2023/12/03 00:02:17;;;;;;;17.67;10.73;;;0.90;99.90;;;;;;4893272;29;20411;-76
2023/12/03 00:04:43;;;;;;;22.07;11.73;;;0.90;99.90;;;;;;4894541;29;20455;-79
2023/12/03 00:07:09;;;;;;;25.20;13.87;;;0.90;99.90;;;;;;4894784;29;20464;-76
2023/12/03 00:09:38;;;;;;;20.50;12.10;;;0.90;99.90;;;;;;4894384;29;20496;-76
2023/12/03 00:12:07;;;;;;;16.70;10.57;;;0.90;99.90;;;;;;4891790;29;20429;-75
2023/12/03 00:14:34;;;;;;;19.37;11.30;;;0.90;99.90;;;;;;4877792;29;20483;-77
2023/12/03 00:17:01;;;;;;;19.97;10.90;;;0.80;99.90;;;;;;4894871;29;20400;-74
2023/12/03 00:19:27;;;;;;;22.80;12.70;;;0.80;99.90;;;;;;4875682;29;20424;-76
2023/12/03 00:21:53;;;;;;;20.50;12.53;;;0.70;99.90;;;;;;4893110;29;20468;-74
2023/12/03 00:24:18;;;;;;;24.63;13.10;;;0.70;99.90;;;;;;4894219;29;20416;-75
2023/12/03 00:26:44;;;;;;;22.00;12.53;;;0.70;99.90;;;;;;4894491;29;20439;-75
2023/12/03 00:29:10;;;;;;;21.03;11.47;;;0.70;99.90;;;;;;4894361;29;20176;-74
2023/12/03 00:31:36;;;;;;;22.17;11.30;;;0.70;99.90;;;;;;4893832;29;20484;-74
2023/12/03 00:34:03;;;;;;;18.17;9.83;;;0.70;99.90;;;;;;4891695;29;20223;-74
2023/12/03 00:36:28;;;;;;;16.33;10.20;;;0.70;99.90;;;;;;4891926;29;20446;-75
2023/12/03 00:38:54;;;;;;;15.60;9.73;;;0.60;99.90;;;;;;4894906;29;20432;-77
2023/12/03 00:41:20;;;;;;;18.87;11.83;;;0.60;99.90;;;;;;4891325;29;20207;-75
2023/12/03 00:43:45;;;;;;;21.10;12.10;;;0.60;99.90;;;;;;4891176;29;20453;-75
2023/12/03 00:46:11;;;;;;;19.90;11.57;;;0.60;99.90;;;;;;4889685;29;20220;-74
2023/12/03 00:48:38;;;;;;;21.13;11.47;;;0.70;99.90;;;;;;4890795;29;20592;-74
2023/12/03 00:51:04;;;;;;;20.50;12.73;;;0.70;99.90;;;;;;4891107;29;20195;-73
2023/12/03 00:53:29;;;;;;;20.00;12.10;;;0.70;99.90;;;;;;4891312;29;20448;-74
2023/12/03 00:55:55;;;;;;;23.90;12.53;;;0.70;99.90;;;;;;4889402;29;20910;-74
2023/12/03 00:58:22;;;;;;;21.60;12.00;;;0.70;99.90;;;;;;4891609;29;20179;-74
2023/12/03 01:00:48;;;;;;;20.37;10.33;;;0.70;99.90;;;;;;4891692;29;20171;-74
2023/12/03 01:03:14;;;;;;;21.20;10.70;;;0.70;99.90;;;;;;4896305;29;20408;-77
2023/12/03 01:05:39;;;;;;;16.90;10.20;;;0.70;99.90;;;;;;4894073;29;20623;-76
2023/12/03 01:08:05;;;;;;;23.30;12.00;;;0.70;99.90;;;;;;4890997;29;20424;-74
2023/12/03 01:10:31;;;;;;;18.37;11.70;;;0.70;99.90;;;;;;4891361;29;20176;-77
2023/12/03 01:12:57;;;;;;;19.13;10.60;;;0.70;99.90;;;;;;4893974;29;20472;-76
2023/12/03 01:15:23;;;;;;;18.90;10.80;;;0.70;99.90;;;;;;4894374;29;20222;-76
2023/12/03 01:17:50;;;;;;;16.60;10.10;;;0.80;99.90;;;;;;4894963;29;20405;-75
2023/12/03 01:20:16;;;;;;;17.93;9.87;;;0.80;99.90;;;;;;4877183;29;20427;-77
2023/12/03 01:22:42;;;;;;;17.87;10.73;;;0.80;99.90;;;;;;4875452;29;20256;-74
2023/12/03 01:25:08;;;;;;;16.93;9.37;;;0.90;99.90;;;;;;4889835;29;20460;-73
2023/12/03 01:27:33;;;;;;;11.60;7.63;;;0.90;99.90;;;;;;4893200;29;20211;-74
2023/12/03 01:29:59;;;;;;;17.57;9.60;;;1.00;99.90;;;;;;4891968;29;20735;-76
2023/12/03 01:32:25;;;;;;;20.20;11.33;;;1.00;99.90;;;;;;4893950;29;20180;-75
2023/12/03 01:34:50;;;;;;;20.23;11.77;;;1.00;99.90;;;;;;4875828;29;20279;-74
2023/12/03 01:37:18;;;;;;;17.60;11.77;;;1.00;99.90;;;;;;4891650;29;20214;-74
2023/12/03 01:39:44;;;;;;;23.83;14.70;;;1.00;99.90;;;;;;4892296;29;20184;-74
2023/12/03 01:42:10;;;;;;;28.00;15.70;;;1.10;99.90;;;;;;4892787;29;20686;-75
2023/12/03 01:44:35;;;;;;;24.73;14.20;;;1.10;99.90;;;;;;4891447;29;20424;-74
2023/12/03 01:47:03;;;;;;;23.30;13.93;;;1.00;99.90;;;;;;4894939;29;20190;-75
2023/12/03 01:49:29;;;;;;;22.97;13.60;;;1.00;99.90;;;;;;4894581;29;20191;-74
2023/12/03 01:51:56;;;;;;;19.43;12.10;;;1.00;99.90;;;;;;4891324;29;20531;-74
2023/12/03 01:54:23;;;;;;;22.53;13.53;;;1.00;99.90;;;;;;4890439;29;20475;-74
2023/12/03 01:56:49;;;;;;;18.33;11.60;;;1.00;99.90;;;;;;4890571;29;20483;-74
2023/12/03 01:59:15;;;;;;;19.77;12.03;;;1.00;99.90;;;;;;4891377;29;20458;-74
2023/12/03 02:01:40;;;;;;;23.40;13.97;;;1.00;99.90;;;;;;4889997;29;20214;-74
2023/12/03 02:04:06;;;;;;;21.90;12.83;;;1.00;99.90;;;;;;4890331;29;20209;-75
2023/12/03 02:06:31;;;;;;;23.63;13.03;;;1.00;99.90;;;;;;4891236;29;20219;-74
2023/12/03 02:08:57;;;;;;;18.30;12.27;;;1.00;99.90;;;;;;4892572;29;20187;-75
2023/12/03 02:11:23;;;;;;;21.23;12.43;;;1.00;99.90;;;;;;4892804;29;20195;-74
2023/12/03 02:13:49;;;;;;;22.30;12.90;;;1.00;99.90;;;;;;4890650;29;20200;-74
2023/12/03 02:16:16;;;;;;;19.83;11.93;;;1.00;99.90;;;;;;4889289;29;20220;-76
2023/12/03 02:18:42;;;;;;;17.40;12.30;;;1.00;99.90;;;;;;4888552;29;20413;-74
2023/12/03 02:21:08;;;;;;;19.37;12.10;;;1.00;99.90;;;;;;4889361;29;20475;-74
2023/12/03 02:23:34;;;;;;;14.83;10.63;;;1.00;99.90;;;;;;4891215;29;20192;-74
2023/12/03 02:25:59;;;;;;;19.40;12.93;;;0.90;99.90;;;;;;4888690;29;20900;-74
2023/12/03 02:28:25;;;;;;;22.27;12.90;;;0.90;99.90;;;;;;4890547;29;20219;-74
2023/12/03 02:30:52;;;;;;;17.77;11.03;;;0.90;99.90;;;;;;4889579;29;20196;-75
2023/12/03 02:33:18;;;;;;;17.53;10.93;;;0.80;99.90;;;;;;4888772;29;20211;-73
2023/12/03 02:35:43;;;;;;;19.50;11.57;;;0.70;99.90;;;;;;4889948;29;20447;-76
2023/12/03 02:38:09;;;;;;;16.07;10.30;;;0.60;99.90;;;;;;4887799;29;20206;-74
2023/12/03 02:40:39;;;;;;;14.60;9.30;;;0.60;99.90;;;;;;4888684;29;20232;-74
2023/12/03 02:43:05;;;;;;;19.63;10.60;;;0.50;99.90;;;;;;4889207;29;20259;-74
2023/12/03 02:45:30;;;;;;;19.20;11.00;;;0.40;99.90;;;;;;4889884;29;20519;-75
2023/12/03 02:47:56;;;;;;;14.43;8.83;;;0.40;99.90;;;;;;4894385;29;20496;-74
2023/12/03 02:50:22;;;;;;;16.90;9.57;;;0.30;99.90;;;;;;4893120;29;20186;-74
2023/12/03 02:52:48;;;;;;;19.27;9.97;;;0.30;99.90;;;;;;4892152;29;20207;-76
2023/12/03 02:55:15;;;;;;;13.97;8.63;;;0.30;99.90;;;;;;4889786;29;20355;-74
2023/12/03 02:57:40;;;;;;;13.37;8.50;;;0.20;99.90;;;;;;4890159;29;20428;-74
2023/12/03 03:00:06;;;;;;;17.50;10.47;;;0.20;99.90;;;;;;4889972;29;20424;-73
2023/12/03 03:02:33;;;;;;;13.93;8.63;;;0.30;99.90;;;;;;4886874;29;20191;-74
2023/12/03 03:04:58;;;;;;;13.97;7.70;;;0.30;99.90;;;;;;4889438;29;20440;-73
2023/12/03 03:07:24;;;;;;;12.33;8.53;;;0.30;99.90;;;;;;4890576;29;20431;-75
2023/12/03 03:09:50;;;;;;;18.47;10.90;;;0.30;99.90;;;;;;4891487;29;20186;-74
2023/12/03 03:12:15;;;;;;;18.57;10.13;;;0.30;99.90;;;;;;4890119;29;20584;-75
2023/12/03 03:14:41;;;;;;;17.53;10.20;;;0.30;99.90;;;;;;4889875;29;20195;-74
2023/12/03 03:17:07;;;;;;;17.80;10.50;;;0.40;99.90;;;;;;4888442;29;20192;-73
2023/12/03 03:19:32;;;;;;;20.37;11.57;;;0.40;99.90;;;;;;4889021;29;20179;-73
2023/12/03 03:21:58;;;;;;;22.40;11.90;;;0.40;99.90;;;;;;4889107;29;20636;-73
2023/12/03 03:24:24;;;;;;;18.63;10.87;;;0.40;99.90;;;;;;4887693;29;20522;-75
2023/12/03 03:26:49;;;;;;;17.33;10.43;;;0.40;99.90;;;;;;4889131;29;20251;-75
2023/12/03 03:29:15;;;;;;;16.90;10.60;;;0.40;99.90;;;;;;4875423;29;20302;-74
2023/12/03 03:31:40;;;;;;;16.40;10.33;;;0.30;99.90;;;;;;4893099;29;20195;-74
2023/12/03 03:34:08;;;;;;;16.90;10.13;;;0.30;99.90;;;;;;4893097;29;20210;-74
2023/12/03 03:36:33;;;;;;;21.33;12.10;;;0.30;99.90;;;;;;4890917;29;20230;-75
2023/12/03 03:39:02;;;;;;;23.43;12.50;;;0.20;99.90;;;;;;4891017;29;20487;-74
2023/12/03 03:41:27;;;;;;;20.57;12.40;;;0.20;99.90;;;;;;4890209;29;20444;-74
2023/12/03 03:43:53;;;;;;;20.77;11.50;;;0.20;99.90;;;;;;4890940;29;20267;-73
2023/12/03 03:46:19;;;;;;;21.30;12.50;;;0.10;99.90;;;;;;4890508;29;20255;-74
2023/12/03 03:48:44;;;;;;;21.90;12.30;;;0.10;99.90;;;;;;4891745;29;20271;-73
2023/12/03 03:51:10;;;;;;;19.70;10.60;;;0.00;99.90;;;;;;4890401;29;20180;-73
2023/12/03 03:53:35;;;;;;;16.90;10.20;;;0.00;99.90;;;;;;4891067;29;20215;-74
2023/12/03 03:56:08;;;;;;;21.00;11.77;;;0.00;99.90;;;;;;4894124;29;20252;-75
2023/12/03 03:58:36;;;;;;;17.97;10.10;;;0.00;99.90;;;;;;4891728;29;20202;-74
2023/12/03 04:01:07;;;;;;;16.20;10.60;;;0.10;99.90;;;;;;4888536;29;20420;-73
2023/12/03 04:03:33;;;;;;;16.17;10.13;;;0.10;99.90;;;;;;4890086;29;20624;-76
2023/12/03 04:06:06;;;;;;;18.90;10.70;;;0.10;99.90;;;;;;4873500;29;20464;-73
2023/12/03 04:08:32;;;;;;;16.73;9.13;;;0.20;99.90;;;;;;4889259;29;20508;-73
2023/12/03 04:11:02;;;;;;;20.60;10.63;;;0.20;99.90;;;;;;4890263;29;20408;-75
2023/12/03 04:13:27;;;;;;;18.43;10.53;;;0.20;99.90;;;;;;4890821;29;20483;-73
2023/12/03 04:15:53;;;;;;;16.40;9.13;;;0.20;99.90;;;;;;4889793;29;20907;-74
2023/12/03 04:18:19;;;;;;;15.40;9.60;;;0.20;99.90;;;;;;4888821;29;20192;-75
2023/12/03 04:20:44;;;;;;;16.00;8.83;;;0.20;99.90;;;;;;4888867;29;20180;-75
2023/12/03 04:23:10;;;;;;;17.53;9.53;;;0.20;99.90;;;;;;4888251;29;20191;-73
2023/12/03 04:25:35;;;;;;;18.60;9.37;;;0.20;99.90;;;;;;4889041;29;20284;-75
2023/12/03 04:28:01;;;;;;;16.70;8.90;;;0.20;99.90;;;;;;4889511;29;20551;-75
2023/12/03 04:30:27;;;;;;;15.97;10.00;;;0.20;99.90;;;;;;4888490;29;20180;-74
2023/12/03 04:32:53;;;;;;;16.03;9.70;;;0.30;99.90;;;;;;4888796;29;20266;-74
2023/12/03 04:35:18;;;;;;;17.80;8.57;;;0.30;99.90;;;;;;4888084;29;20248;-74
2023/12/03 04:37:45;;;;;;;15.33;9.60;;;0.30;99.90;;;;;;4888531;29;20249;-73
2023/12/03 04:40:11;;;;;;;14.43;9.20;;;0.30;99.90;;;;;;4887733;29;20267;-72
2023/12/03 04:42:37;;;;;;;16.93;9.50;;;0.30;99.90;;;;;;4890977;29;20423;-74
2023/12/03 04:45:03;;;;;;;14.60;8.90;;;0.20;99.90;;;;;;4890671;29;20887;-73
2023/12/03 04:47:29;;;;;;;15.47;8.90;;;0.20;99.90;;;;;;4887797;29;20171;-74
2023/12/03 04:49:54;;;;;;;15.07;8.13;;;0.10;99.90;;;;;;4889108;29;20436;-74
2023/12/03 04:52:20;;;;;;;15.20;8.93;;;0.00;99.90;;;;;;4887015;29;20493;-73
2023/12/03 04:54:46;;;;;;;15.67;8.20;;;0.00;99.90;;;;;;4886466;29;20270;-73
2023/12/03 04:57:11;;;;;;;15.07;8.27;;;-0.10;99.90;;;;;;4890507;29;20188;-74
2023/12/03 04:59:37;;;;;;;14.43;8.80;;;-0.20;99.90;;;;;;4886752;29;20262;-73
2023/12/03 05:02:03;;;;;;;14.53;8.70;;;-0.30;99.90;;;;;;4888399;29;20188;-73
2023/12/03 05:04:28;;;;;;;13.60;8.37;;;-0.40;99.90;;;;;;4889128;29;20180;-74
2023/12/03 05:06:54;;;;;;;16.67;9.70;;;-0.40;99.90;;;;;;4887333;29;20627;-72
2023/12/03 05:09:20;;;;;;;16.33;8.60;;;-0.50;99.90;;;;;;4887966;29;20177;-73
2023/12/03 05:11:45;;;;;;;15.50;7.73;;;-0.50;99.90;;;;;;4888323;29;20513;-74
2023/12/03 05:14:11;;;;;;;14.40;9.47;;;-0.50;99.90;;;;;;4889131;29;20287;-73
2023/12/03 05:16:38;;;;;;;15.40;8.67;;;-0.50;99.90;;;;;;4887566;29;20290;-74
2023/12/03 05:19:03;;;;;;;17.00;9.40;;;-0.40;99.90;;;;;;4888042;29;20492;-72
2023/12/03 05:21:29;;;;;;;19.63;9.13;;;-0.30;99.90;;;;;;4888871;29;20452;-73
2023/12/03 05:23:55;;;;;;;15.90;9.00;;;-0.30;99.90;;;;;;4890014;29;20184;-74
2023/12/03 05:26:20;;;;;;;15.70;8.70;;;-0.20;99.90;;;;;;4890185;29;20216;-74
2023/12/03 05:28:46;;;;;;;11.97;7.83;;;-0.20;99.90;;;;;;4887088;29;20199;-74
2023/12/03 05:31:12;;;;;;;16.20;9.27;;;-0.20;99.90;;;;;;4887169;29;20291;-73
2023/12/03 05:33:37;;;;;;;11.13;7.37;;;-0.20;99.90;;;;;;4888760;29;20360;-74
2023/12/03 05:36:03;;;;;;;14.80;8.03;;;-0.30;99.90;;;;;;4888453;29;20238;-74
2023/12/03 05:38:29;;;;;;;11.87;6.83;;;-0.30;99.90;;;;;;4890864;29;20252;-74
2023/12/03 05:40:55;;;;;;;15.40;9.33;;;-0.40;99.90;;;;;;4889941;29;20413;-74
2023/12/03 05:43:20;;;;;;;12.70;7.77;;;-0.40;99.90;;;;;;4887195;29;20207;-73
2023/12/03 05:45:46;;;;;;;12.77;7.87;;;-0.40;99.90;;;;;;4885851;29;20214;-73
2023/12/03 05:48:12;;;;;;;16.10;8.43;;;-0.40;99.90;;;;;;4888755;29;20282;-73
2023/12/03 05:50:37;;;;;;;14.00;8.00;;;-0.40;99.90;;;;;;4889662;29;20211;-74
2023/12/03 05:53:03;;;;;;;16.30;8.50;;;-0.40;99.90;;;;;;4888693;29;20184;-74
2023/12/03 05:55:29;;;;;;;13.03;8.03;;;-0.30;99.90;;;;;;4888010;29;20256;-74
2023/12/03 05:57:55;;;;;;;11.87;7.70;;;-0.30;99.90;;;;;;4857084;29;20184;-75
2023/12/03 06:00:20;;;;;;;14.30;8.63;;;-0.20;99.90;;;;;;4887962;29;20416;-73
2023/12/03 06:02:46;;;;;;;14.03;8.00;;;-0.20;99.90;;;;;;4887378;29;20176;-74
2023/12/03 06:05:11;;;;;;;13.83;7.10;;;-0.20;99.90;;;;;;4888519;29;20620;-73
2023/12/03 06:07:37;;;;;;;13.47;6.87;;;-0.20;99.90;;;;;;4887818;29;20232;-75
2023/12/03 06:10:03;;;;;;;13.30;7.17;;;-0.30;99.90;;;;;;4888826;29;20184;-73
2023/12/03 06:12:30;;;;;;;12.57;8.13;;;-0.30;99.90;;;;;;4887844;29;20231;-73
2023/12/03 06:14:55;;;;;;;14.40;8.47;;;-0.20;99.90;;;;;;4888154;29;20483;-75
2023/12/03 06:17:21;;;;;;;12.27;7.47;;;-0.20;99.90;;;;;;4886802;29;20191;-75
2023/12/03 06:19:47;;;;;;;13.93;8.20;;;-0.20;99.90;;;;;;4888066;29;20198;-73
2023/12/03 06:22:12;;;;;;;14.03;7.40;;;-0.20;99.90;;;;;;4887103;29;20195;-74
2023/12/03 06:24:38;;;;;;;9.60;6.30;;;-0.20;99.90;;;;;;4889034;29;20298;-77
2023/12/03 06:27:05;;;;;;;13.67;8.40;;;-0.20;99.90;;;;;;4887563;29;20572;-74
2023/12/03 06:29:30;;;;;;;13.47;7.90;;;-0.20;99.90;;;;;;4887438;29;20432;-73
2023/12/03 06:31:57;;;;;;;12.63;7.80;;;-0.20;99.90;;;;;;4891173;29;20449;-74
2023/12/03 06:34:22;;;;;;;15.13;7.80;;;-0.20;99.90;;;;;;4890583;29;20464;-73
2023/12/03 06:36:48;;;;;;;14.17;8.40;;;-0.20;99.90;;;;;;4888271;29;20462;-74
2023/12/03 06:39:13;;;;;;;13.13;7.90;;;-0.20;99.90;;;;;;4887874;29;20172;-72
2023/12/03 06:41:39;;;;;;;12.50;7.50;;;-0.10;99.90;;;;;;4886596;29;20179;-74
2023/12/03 06:44:06;;;;;;;18.23;9.57;;;-0.10;99.90;;;;;;4886512;29;20192;-73
2023/12/03 06:46:41;;;;;;;17.00;8.10;;;-0.10;99.90;;;;;;4887226;29;20594;-74
2023/12/03 06:49:07;;;;;;;16.33;8.90;;;-0.10;99.90;;;;;;4887700;29;20730;-74
2023/12/03 06:51:33;;;;;;;17.53;9.30;;;-0.10;99.90;;;;;;4888745;29;20875;-74
2023/12/03 06:54:00;;;;;;;15.80;8.30;;;-0.10;99.90;;;;;;4887804;29;20502;-74
2023/12/03 06:56:26;;;;;;;12.30;6.90;;;-0.20;99.90;;;;;;4888912;29;20463;-73
2023/12/03 06:58:51;;;;;;;17.20;8.63;;;-0.20;99.90;;;;;;4887201;29;20421;-74
2023/12/03 07:01:17;;;;;;;15.43;8.20;;;-0.20;99.90;;;;;;4887325;29;20267;-75
2023/12/03 07:03:42;;;;;;;15.30;9.43;;;-0.20;99.90;;;;;;4886810;29;20204;-74
2023/12/03 07:06:09;;;;;;;17.10;8.83;;;-0.20;99.90;;;;;;4890499;29;20317;-74
2023/12/03 07:08:34;;;;;;;16.67;8.27;;;-0.20;99.90;;;;;;4891162;29;20187;-73
2023/12/03 07:11:00;;;;;;;16.83;9.33;;;-0.20;99.90;;;;;;4890640;29;20857;-75
2023/12/03 07:13:26;;;;;;;15.43;7.37;;;-0.30;99.90;;;;;;4891174;29;20215;-75
2023/12/03 07:15:51;;;;;;;13.93;7.27;;;-0.30;99.90;;;;;;4875064;29;20250;-74
2023/12/03 07:18:17;;;;;;;12.00;8.10;;;-0.30;99.90;;;;;;4890352;29;20188;-74
2023/12/03 07:20:43;;;;;;;14.43;8.27;;;-0.30;99.90;;;;;;4891366;29;20201;-74
2023/12/03 07:23:08;;;;;;;14.67;8.00;;;-0.30;99.90;;;;;;4879314;29;20212;-73
2023/12/03 07:25:34;;;;;;;13.63;8.30;;;-0.20;99.90;;;;;;4890286;29;20286;-73
2023/12/03 07:28:01;;;;;;;15.40;8.37;;;-0.10;99.90;;;;;;4893074;29;20191;-73
2023/12/03 07:30:27;;;;;;;15.50;8.30;;;0.00;99.90;;;;;;4895036;29;20420;-74
2023/12/03 07:32:53;;;;;;;15.83;8.70;;;0.00;99.90;;;;;;4895192;29;20423;-74
2023/12/03 07:35:18;;;;;;;14.93;7.60;;;0.00;99.90;;;;;;4890987;29;20287;-73
2023/12/03 07:37:44;;;;;;;15.37;7.80;;;0.00;99.90;;;;;;4891612;29;20580;-72
2023/12/03 07:40:10;;;;;;;16.30;8.10;;;0.00;99.90;;;;;;4890064;29;20275;-74
2023/12/03 07:42:36;;;;;;;19.73;9.20;;;0.00;99.90;;;;;;4888746;29;20172;-74
2023/12/03 07:45:02;;;;;;;14.73;9.03;;;0.00;99.90;;;;;;4873742;29;20960;-73
2023/12/03 07:47:29;;;;;;;16.20;9.57;;;0.00;99.90;;;;;;4888442;29;20348;-74
2023/12/03 07:49:55;;;;;;;13.73;7.60;;;-0.10;99.90;;;;;;4890692;29;20587;-73
2023/12/03 07:52:21;;;;;;;13.60;7.57;;;-0.20;99.90;;;;;;4891866;29;20412;-74
2023/12/03 07:54:46;;;;;;;14.10;8.00;;;-0.30;99.90;;;;;;4891369;29;20234;-74
2023/12/03 07:57:12;;;;;;;16.20;8.77;;;-0.30;99.90;;;;;;4889538;29;20176;-75
2023/12/03 07:59:39;;;;;;;14.33;8.03;;;-0.40;99.90;;;;;;4889812;29;20262;-74
2023/12/03 08:02:06;;;;;;;14.30;7.50;;;-0.50;99.90;;;;;;4890692;29;20424;-74
2023/12/03 08:04:31;;;;;;;15.60;7.80;;;-0.50;99.90;;;;;;4890722;29;20409;-74
2023/12/03 08:06:57;;;;;;;19.63;9.70;;;-0.60;99.90;;;;;;4892129;29;20551;-75
2023/12/03 08:09:23;;;;;;;15.70;7.40;;;-0.60;99.90;;;;;;4891577;29;20196;-75
2023/12/03 08:11:49;;;;;;;15.60;8.97;;;-0.60;99.90;;;;;;4890774;29;20184;-74
2023/12/03 08:14:15;;;;;;;14.83;8.17;;;-0.60;99.90;;;;;;4891989;29;20478;-73
2023/12/03 08:16:40;;;;;;;13.50;7.90;;;-0.50;99.90;;;;;;4887735;29;20227;-75
2023/12/03 08:19:06;;;;;;;16.07;8.67;;;-0.50;99.90;;;;;;4888514;29;20200;-75
2023/12/03 08:21:33;;;;;;;15.90;8.93;;;-0.50;99.90;;;;;;4890821;29;20195;-74
2023/12/03 08:23:59;;;;;;;16.10;8.17;;;-0.50;99.90;;;;;;4891062;29;20535;-74
2023/12/03 08:26:25;;;;;;;16.57;9.20;;;-0.50;99.90;;;;;;4887436;29;20480;-75
2023/12/03 08:28:50;;;;;;;18.80;9.30;;;-0.40;99.90;;;;;;4888087;29;20588;-74
2023/12/03 08:31:16;;;;;;;17.43;8.43;;;-0.20;99.90;;;;;;4888567;29;20190;-75
2023/12/03 08:33:42;;;;;;;15.93;8.80;;;0.00;99.90;;;;;;4887547;29;20719;-76
2023/12/03 08:36:08;;;;;;;21.40;8.77;;;0.00;99.90;;;;;;4888823;29;20268;-76
2023/12/03 08:38:34;;;;;;;19.30;9.97;;;0.00;99.90;;;;;;4889161;29;20188;-74
2023/12/03 08:41:00;;;;;;;18.03;9.97;;;0.00;99.90;;;;;;4887548;29;20409;-75
2023/12/03 08:43:25;;;;;;;19.33;10.13;;;0.00;99.90;;;;;;4873469;29;20467;-74
2023/12/03 08:45:51;;;;;;;16.40;9.43;;;0.00;99.90;;;;;;4858079;29;20701;-74
2023/12/03 08:48:16;;;;;;;22.70;9.93;;;0.00;99.90;;;;;;4869661;29;20188;-74
2023/12/03 08:50:42;;;;;;;18.57;9.97;;;0.00;99.90;;;;;;4890968;29;20191;-74
2023/12/03 08:53:08;;;;;;;15.57;7.47;;;0.00;99.90;;;;;;4890644;29;20182;-75
2023/12/03 08:55:33;;;;;;;18.63;9.33;;;0.00;99.90;;;;;;4892274;29;20204;-74
2023/12/03 08:58:02;;;;;;;21.07;10.30;;;-0.10;99.90;;;;;;4889078;29;20207;-75
2023/12/03 09:00:27;;;;;;;17.20;8.90;;;-0.10;99.90;;;;;;4890043;29;20206;-74
2023/12/03 09:02:53;;;;;;;18.13;10.53;;;-0.10;99.90;;;;;;4889425;29;20507;-75
2023/12/03 09:05:19;;;;;;;15.27;8.93;;;-0.20;99.90;;;;;;4890734;29;20224;-73
2023/12/03 09:07:44;;;;;;;20.30;8.63;;;-0.20;99.90;;;;;;4892575;29;20191;-75
2023/12/03 09:10:10;;;;;;;17.50;9.43;;;-0.20;99.90;;;;;;4889831;29;20188;-75
2023/12/03 09:12:36;;;;;;;18.17;9.27;;;-0.20;99.90;;;;;;4876242;29;20477;-73
2023/12/03 09:15:02;;;;;;;14.07;8.47;;;-0.10;99.90;;;;;;4891194;29;20212;-75
2023/12/03 09:17:27;;;;;;;16.03;9.10;;;-0.10;99.90;;;;;;4890489;29;20194;-74
2023/12/03 09:19:53;;;;;;;16.77;8.07;;;0.00;99.90;;;;;;4889538;29;20445;-74
2023/12/03 09:22:20;;;;;;;17.83;10.17;;;0.00;99.90;;;;;;4890012;29;20184;-73
2023/12/03 09:24:47;;;;;;;16.57;9.10;;;0.10;99.90;;;;;;4889081;29;20207;-73
2023/12/03 09:27:13;;;;;;;14.40;8.60;;;0.10;99.90;;;;;;4888520;29;20469;-73
2023/12/03 09:29:38;;;;;;;14.50;8.37;;;0.20;99.90;;;;;;4888110;29;20435;-74
2023/12/03 09:32:04;;;;;;;14.80;8.03;;;0.30;99.90;;;;;;4888793;29;20176;-75
2023/12/03 09:34:30;;;;;;;19.03;9.37;;;0.30;99.90;;;;;;4890257;29;20671;-75
2023/12/03 09:36:56;;;;;;;17.17;8.40;;;0.40;99.90;;;;;;4890157;29;20188;-73
2023/12/03 09:39:22;;;;;;;17.53;9.50;;;0.40;99.90;;;;;;4891714;29;20472;-75
2023/12/03 09:41:50;;;;;;;14.57;9.27;;;0.50;99.90;;;;;;4893047;29;20432;-75
2023/12/03 09:44:21;;;;;;;16.53;9.30;;;0.50;99.90;;;;;;4891629;29;20168;-74
2023/12/03 09:46:49;;;;;;;17.13;8.83;;;0.60;99.90;;;;;;4893503;29;20424;-77
2023/12/03 09:49:18;;;;;;;18.03;10.00;;;0.60;99.90;;;;;;4891287;29;20420;-75
2023/12/03 09:51:43;;;;;;;18.70;9.33;;;0.70;99.90;;;;;;4892810;29;20449;-75
2023/12/03 09:54:09;;;;;;;17.33;9.00;;;0.80;99.90;;;;;;4893679;29;20528;-76
2023/12/03 09:56:38;;;;;;;15.90;9.27;;;0.80;99.90;;;;;;4891579;29;20465;-75
2023/12/03 09:59:06;;;;;;;20.97;10.23;;;0.80;99.90;;;;;;4895483;29;20421;-76
2023/12/03 10:01:36;;;;;;;17.47;8.93;;;0.80;99.90;;;;;;4879021;29;20417;-74
2023/12/03 10:04:05;;;;;;;17.23;10.50;;;0.80;99.90;;;;;;4892531;29;20500;-75
2023/12/03 10:06:34;;;;;;;21.13;11.00;;;0.90;99.90;;;;;;4878801;29;20484;-77
2023/12/03 10:09:03;;;;;;;17.13;9.20;;;0.90;99.90;;;;;;4892341;29;20443;-76
2023/12/03 10:11:39;;;;;;;15.53;9.20;;;0.90;99.90;;;;;;4894035;29;20401;-76
2023/12/03 10:14:07;;;;;;;22.73;11.23;;;0.90;99.90;;;;;;4893750;29;20463;-77
2023/12/03 10:16:33;;;;;;;21.23;11.87;;;0.90;99.90;;;;;;4874976;29;20441;-75
2023/12/03 10:18:59;;;;;;;19.10;10.10;;;0.90;99.90;;;;;;4873447;29;20419;-74
2023/12/03 10:21:25;;;;;;;19.53;9.40;;;1.00;99.90;;;;;;4892263;29;20172;-78
2023/12/03 10:24:03;;;;;;;16.80;9.53;;;1.00;99.90;;;;;;4877825;29;20254;-75
2023/12/03 10:26:30;;;;;;;22.90;11.70;;;1.00;99.90;;;;;;4890356;29;20793;-76
2023/12/03 10:28:55;;;;;;;18.97;11.70;;;1.00;99.90;;;;;;4892981;29;20420;-76
2023/12/03 10:31:21;;;;;;;18.70;10.40;;;1.10;99.90;;;;;;4891668;29;20416;-74
2023/12/03 10:33:46;;;;;;;22.27;11.27;;;1.10;99.90;;;;;;4892504;29;20244;-76
2023/12/03 10:36:13;;;;;;;24.43;11.90;;;1.10;99.90;;;;;;4893744;29;20200;-75
2023/12/03 10:38:40;;;;;;;21.93;11.57;;;1.20;99.90;;;;;;4876540;29;20198;-76
2023/12/03 10:41:08;;;;;;;20.10;11.20;;;1.20;99.90;;;;;;4892132;29;20436;-75
2023/12/03 10:43:35;;;;;;;21.50;11.50;;;1.30;99.90;;;;;;4892359;29;20684;-77
2023/12/03 10:46:08;;;;;;;22.47;11.87;;;1.30;99.90;;;;;;4892535;29;20440;-77
2023/12/03 10:48:34;;;;;;;24.70;11.43;;;1.40;99.90;;;;;;4891946;29;20417;-77
2023/12/03 10:51:07;;;;;;;21.30;11.40;;;1.40;99.90;;;;;;4893251;29;20437;-75
2023/12/03 10:53:34;;;;;;;19.60;10.80;;;1.50;99.90;;;;;;4872660;29;20464;-76
2023/12/03 10:56:07;;;;;;;18.10;10.67;;;1.60;99.90;;;;;;4887954;29;20455;-74
2023/12/03 10:58:37;;;;;;;22.33;12.80;;;1.70;99.90;;;;;;4890762;29;20417;-78
2023/12/03 11:01:19;;;;;;;25.83;11.70;;;1.80;99.90;;;;;;4875005;29;20512;-75
2023/12/03 11:03:59;;;;;;;18.80;10.37;;;1.90;99.90;;;;;;4890188;29;20424;-76
2023/12/03 11:06:25;;;;;;;21.03;11.97;;;2.00;99.90;;;;;;4889400;29;20476;-76
2023/12/03 11:08:54;;;;;;;21.17;10.93;;;2.10;99.90;;;;;;4889990;29;20417;-76
2023/12/03 11:11:21;;;;;;;23.80;11.70;;;2.20;99.90;;;;;;4889779;29;20492;-77
2023/12/03 11:13:50;;;;;;;21.80;12.80;;;2.20;99.90;;;;;;4890436;29;20904;-75
2023/12/03 11:16:18;;;;;;;20.20;11.33;;;2.20;99.90;;;;;;4889663;29;20499;-76
2023/12/03 11:18:58;;;;;;;19.90;10.53;;;2.20;99.90;;;;;;4889595;29;20424;-74
2023/12/03 11:21:33;;;;;;;16.60;9.70;;;2.20;99.90;;;;;;4889799;29;20421;-77
2023/12/03 11:24:27;;;;;;;21.20;11.10;;;2.20;99.90;;;;;;4888971;29;20694;-75
2023/12/03 11:26:52;;;;;;;27.23;13.70;;;2.20;99.90;;;;;;4890762;29;20705;-76
2023/12/03 11:29:18;;;;;;;19.03;11.30;;;2.30;99.90;;;;;;4889777;29;20522;-74
2023/12/03 11:31:44;;;;;;;19.60;11.10;;;2.30;99.90;;;;;;4890125;29;20176;-75
2023/12/03 11:34:10;;;;;;;19.30;12.63;;;2.20;99.90;;;;;;4890340;29;20219;-75
2023/12/03 11:36:42;;;;;;;20.83;12.20;;;2.30;99.90;;;;;;4893115;29;20260;-76
2023/12/03 11:39:08;;;;;;;22.30;12.57;;;2.30;99.60;;;;;;4876099;29;20499;-77
2023/12/03 11:41:37;;;;;;;18.50;11.10;;;2.40;99.60;;;;;;4893291;29;20419;-76
2023/12/03 11:44:23;;;;;;;17.40;10.07;;;2.30;99.40;;;;;;4877503;29;20187;-78
2023/12/03 11:47:00;;;;;;;19.47;11.77;;;2.40;97.80;;;;;;4892279;29;20432;-77
2023/12/03 11:49:27;;;;;;;18.87;10.93;;;2.40;97.10;;;;;;4892585;29;20461;-77
2023/12/03 11:51:53;;;;;;;15.27;9.60;;;2.30;97.70;;;;;;4878755;29;20421;-76
2023/12/03 11:54:26;;;;;;;20.33;11.30;;;2.30;98.00;;;;;;4897628;29;20463;-77
2023/12/03 11:56:53;;;;;;;17.57;10.90;;;2.30;97.40;;;;;;4898686;29;20459;-77
2023/12/03 11:59:19;;;;;;;20.63;11.23;;;2.30;97.40;;;;;;4897501;29;20407;-76
2023/12/03 12:01:44;;;;;;;21.73;10.47;;;2.30;97.20;;;;;;4897127;29;20720;-76
2023/12/03 12:04:23;;;;;;;17.60;10.20;;;2.40;96.30;;;;;;4895782;29;20172;-77
2023/12/03 12:06:53;;;;;;;16.80;9.67;;;2.30;96.50;;;;;;4878728;29;20547;-75
2023/12/03 12:09:23;;;;;;;19.57;10.00;;;2.40;95.50;;;;;;4893676;29;20447;-76
2023/12/03 12:11:49;;;;;;;18.13;10.30;;;2.30;95.60;;;;;;4880724;29;20433;-76
2023/12/03 12:14:18;;;;;;;18.40;9.50;;;2.20;95.20;;;;;;4899509;29;20456;-78
2023/12/03 12:16:45;;;;;;;16.10;9.27;;;2.20;95.70;;;;;;4897954;29;20440;-77
2023/12/03 12:19:12;;;;;;;18.03;10.30;;;2.10;96.10;;;;;;4895365;29;20616;-76
2023/12/03 12:21:56;;;;;;;13.37;8.37;;;2.10;96.40;;;;;;4881663;29;20421;-77
2023/12/03 12:24:23;;;;;;;17.77;10.20;;;2.20;96.90;;;;;;4895813;29;20466;-79
2023/12/03 12:26:50;;;;;;;16.47;10.30;;;2.30;97.10;;;;;;4865554;29;20572;-78
2023/12/03 12:29:18;;;;;;;17.33;9.03;;;2.30;96.00;;;;;;4882243;29;20477;-77
2023/12/03 12:31:43;;;;;;;14.77;9.63;;;2.50;95.20;;;;;;4883546;29;20453;-76
2023/12/03 12:34:13;;;;;;;16.27;10.20;;;2.50;94.60;;;;;;4896649;29;20472;-77
2023/12/03 12:36:43;;;;;;;16.00;9.00;;;2.70;94.70;;;;;;4879566;29;20516;-77